sensor_id;sensor_type;location;lat;lon;timestamp;temperature;humidity
7894;DHT22;51343;51.396;6.656;2022-09-20T00:01:05;10.20;99.90
7894;DHT22;51343;51.396;6.656;2022-09-20T00:03:34;10.30;99.90
7894;DHT22;51343;51.396;6.656;2022-09-20T00:06:01;10.30;99.90
7894;DHT22;51343;51.396;6.656;2022-09-20T00:08:27;10.40;99.90
7894;DHT22;51343;51.396;6.656;2022-09-20T00:10:56;10.40;99.90
7894;DHT22;51343;51.396;6.656;2022-09-20T00:13:24;10.40;99.90
7894;DHT22;51343;51.396;6.656;2022-09-20T00:15:50;10.50;99.90
7894;DHT22;51343;51.396;6.656;2022-09-20T00:18:17;10.50;99.90
7894;DHT22;51343;51.396;6.656;2022-09-20T00:20:45;10.60;99.90
7894;DHT22;51343;51.396;6.656;2022-09-20T00:23:12;10.60;99.90
7894;DHT22;51343;51.396;6.656;2022-09-20T00:25:39;10.60;99.90
7894;DHT22;51343;51.396;6.656;2022-09-20T00:28:06;10.60;99.90
7894;DHT22;51343;51.396;6.656;2022-09-20T00:30:33;10.60;99.90
7894;DHT22;51343;51.396;6.656;2022-09-20T00:33:00;10.60;99.90
7894;DHT22;51343;51.396;6.656;2022-09-20T00:35:27;10.60;99.90
7894;DHT22;51343;51.396;6.656;2022-09-20T00:37:55;10.60;99.90
7894;DHT22;51343;51.396;6.656;2022-09-20T00:40:22;10.70;99.90
7894;DHT22;51343;51.396;6.656;2022-09-20T00:42:51;10.70;99.90
7894;DHT22;51343;51.396;6.656;2022-09-20T00:45:18;10.70;99.90
7894;DHT22;51343;51.396;6.656;2022-09-20T00:47:46;10.70;99.90
7894;DHT22;51343;51.396;6.656;2022-09-20T00:50:19;10.70;99.90
7894;DHT22;51343;51.396;6.656;2022-09-20T00:52:50;10.70;99.90
7894;DHT22;51343;51.396;6.656;2022-09-20T00:55:21;10.80;99.90
7894;DHT22;51343;51.396;6.656;2022-09-20T00:57:48;10.80;99.90
7894;DHT22;51343;51.396;6.656;2022-09-20T01:00:14;10.70;99.90
7894;DHT22;51343;51.396;6.656;2022-09-20T01:02:44;10.70;99.90
7894;DHT22;51343;51.396;6.656;2022-09-20T01:05:13;10.70;99.90
7894;DHT22;51343;51.396;6.656;2022-09-20T01:07:41;10.80;99.90
7894;DHT22;51343;51.396;6.656;2022-09-20T01:10:08;10.80;99.90
7894;DHT22;51343;51.396;6.656;2022-09-20T01:12:36;10.80;99.90
7894;DHT22;51343;51.396;6.656;2022-09-20T01:15:05;10.80;99.90
7894;DHT22;51343;51.396;6.656;2022-09-20T01:17:33;10.80;99.90
7894;DHT22;51343;51.396;6.656;2022-09-20T01:20:07;10.80;99.90
7894;DHT22;51343;51.396;6.656;2022-09-20T01:22:35;10.80;99.90
7894;DHT22;51343;51.396;6.656;2022-09-20T01:25:08;10.80;99.90
7894;DHT22;51343;51.396;6.656;2022-09-20T01:27:40;10.80;99.90
7894;DHT22;51343;51.396;6.656;2022-09-20T01:30:08;10.80;99.90
7894;DHT22;51343;51.396;6.656;2022-09-20T01:32:39;10.80;99.90
7894;DHT22;51343;51.396;6.656;2022-09-20T01:35:07;10.80;99.90
7894;DHT22;51343;51.396;6.656;2022-09-20T01:37:37;10.90;99.90
7894;DHT22;51343;51.396;6.656;2022-09-20T01:40:08;10.90;99.90
7894;DHT22;51343;51.396;6.656;2022-09-20T01:42:38;10.80;99.90
7894;DHT22;51343;51.396;6.656;2022-09-20T01:45:12;10.80;99.90
7894;DHT22;51343;51.396;6.656;2022-09-20T01:47:41;10.80;99.90
7894;DHT22;51343;51.396;6.656;2022-09-20T01:50:14;10.80;99.90
7894;DHT22;51343;51.396;6.656;2022-09-20T01:53:00;10.70;99.90
7894;DHT22;51343;51.396;6.656;2022-09-20T01:58:44;10.70;99.90
7894;DHT22;51343;51.396;6.656;2022-09-20T02:04:14;10.80;99.90
7894;DHT22;51343;51.396;6.656;2022-09-20T02:06:55;10.80;99.90
7894;DHT22;51343;51.396;6.656;2022-09-20T02:09:41;10.80;99.90
7894;DHT22;51343;51.396;6.656;2022-09-20T02:12:20;10.90;99.90
7894;DHT22;51343;51.396;6.656;2022-09-20T02:14:50;10.90;99.90
7894;DHT22;51343;51.396;6.656;2022-09-20T02:17:20;10.90;99.90
7894;DHT22;51343;51.396;6.656;2022-09-20T02:28:15;10.90;99.90
7894;DHT22;51343;51.396;6.656;2022-09-20T02:30:48;10.90;99.90
7894;DHT22;51343;51.396;6.656;2022-09-20T02:33:22;10.90;99.90
7894;DHT22;51343;51.396;6.656;2022-09-20T02:35:57;10.90;99.90
7894;DHT22;51343;51.396;6.656;2022-09-20T02:38:35;10.80;99.90
7894;DHT22;51343;51.396;6.656;2022-09-20T02:41:14;10.80;99.90
7894;DHT22;51343;51.396;6.656;2022-09-20T02:43:50;10.80;99.90
7894;DHT22;51343;51.396;6.656;2022-09-20T02:46:19;10.80;99.90
7894;DHT22;51343;51.396;6.656;2022-09-20T02:48:48;10.80;99.90
7894;DHT22;51343;51.396;6.656;2022-09-20T02:51:20;10.80;99.90
7894;DHT22;51343;51.396;6.656;2022-09-20T02:53:51;10.80;99.90
7894;DHT22;51343;51.396;6.656;2022-09-20T02:56:21;10.90;99.90
7894;DHT22;51343;51.396;6.656;2022-09-20T02:58:54;10.80;99.90
7894;DHT22;51343;51.396;6.656;2022-09-20T03:01:28;10.80;99.90
7894;DHT22;51343;51.396;6.656;2022-09-20T03:03:58;10.80;99.90
7894;DHT22;51343;51.396;6.656;2022-09-20T03:06:29;10.80;99.90
7894;DHT22;51343;51.396;6.656;2022-09-20T03:09:00;10.80;99.90
7894;DHT22;51343;51.396;6.656;2022-09-20T03:11:30;10.90;99.90
7894;DHT22;51343;51.396;6.656;2022-09-20T03:14:05;10.90;99.90
7894;DHT22;51343;51.396;6.656;2022-09-20T03:16:36;10.90;99.90
7894;DHT22;51343;51.396;6.656;2022-09-20T03:19:09;10.90;99.90
7894;DHT22;51343;51.396;6.656;2022-09-20T03:21:44;10.90;99.90
7894;DHT22;51343;51.396;6.656;2022-09-20T03:24:17;10.90;99.90
7894;DHT22;51343;51.396;6.656;2022-09-20T03:26:48;10.80;99.90
7894;DHT22;51343;51.396;6.656;2022-09-20T03:29:20;10.90;99.90
7894;DHT22;51343;51.396;6.656;2022-09-20T03:31:53;10.90;99.90
7894;DHT22;51343;51.396;6.656;2022-09-20T03:34:28;10.80;99.90
7894;DHT22;51343;51.396;6.656;2022-09-20T03:37:10;10.80;99.90
7894;DHT22;51343;51.396;6.656;2022-09-20T03:39:46;10.80;99.90
7894;DHT22;51343;51.396;6.656;2022-09-20T03:42:18;10.90;99.90
7894;DHT22;51343;51.396;6.656;2022-09-20T03:47:49;10.90;99.90
7894;DHT22;51343;51.396;6.656;2022-09-20T03:50:22;10.90;99.90
7894;DHT22;51343;51.396;6.656;2022-09-20T03:52:56;10.90;99.90
7894;DHT22;51343;51.396;6.656;2022-09-20T03:55:31;10.90;99.90
7894;DHT22;51343;51.396;6.656;2022-09-20T03:58:07;10.90;99.90
7894;DHT22;51343;51.396;6.656;2022-09-20T04:00:42;10.90;99.90
7894;DHT22;51343;51.396;6.656;2022-09-20T04:03:16;10.90;99.90
7894;DHT22;51343;51.396;6.656;2022-09-20T04:05:49;10.90;99.90
7894;DHT22;51343;51.396;6.656;2022-09-20T04:08:26;10.90;99.90
7894;DHT22;51343;51.396;6.656;2022-09-20T04:10:57;11.00;99.90
7894;DHT22;51343;51.396;6.656;2022-09-20T04:13:30;10.90;99.90
7894;DHT22;51343;51.396;6.656;2022-09-20T04:16:06;10.90;99.90
7894;DHT22;51343;51.396;6.656;2022-09-20T04:18:36;10.90;99.90
7894;DHT22;51343;51.396;6.656;2022-09-20T04:21:06;10.90;99.90
7894;DHT22;51343;51.396;6.656;2022-09-20T04:23:38;11.00;99.90
7894;DHT22;51343;51.396;6.656;2022-09-20T04:26:06;10.90;99.90
7894;DHT22;51343;51.396;6.656;2022-09-20T04:28:34;10.90;99.90
7894;DHT22;51343;51.396;6.656;2022-09-20T04:31:02;10.90;99.90
7894;DHT22;51343;51.396;6.656;2022-09-20T04:33:32;10.90;99.90
7894;DHT22;51343;51.396;6.656;2022-09-20T04:36:04;10.90;99.90
7894;DHT22;51343;51.396;6.656;2022-09-20T04:38:54;10.90;99.90
7894;DHT22;51343;51.396;6.656;2022-09-20T04:41:31;10.90;99.90
7894;DHT22;51343;51.396;6.656;2022-09-20T04:49:51;10.90;99.90
7894;DHT22;51343;51.396;6.656;2022-09-20T04:52:32;10.80;99.90
7894;DHT22;51343;51.396;6.656;2022-09-20T04:55:22;10.80;99.90
7894;DHT22;51343;51.396;6.656;2022-09-20T05:00:47;10.80;99.90
7894;DHT22;51343;51.396;6.656;2022-09-20T05:03:29;10.80;99.90
7894;DHT22;51343;51.396;6.656;2022-09-20T05:11:43;10.80;99.90
7894;DHT22;51343;51.396;6.656;2022-09-20T05:14:22;10.80;99.90
7894;DHT22;51343;51.396;6.656;2022-09-20T05:17:04;10.80;99.90
7894;DHT22;51343;51.396;6.656;2022-09-20T05:19:33;10.80;99.90
7894;DHT22;51343;51.396;6.656;2022-09-20T05:22:12;10.80;99.90
7894;DHT22;51343;51.396;6.656;2022-09-20T05:24:54;10.80;99.90
7894;DHT22;51343;51.396;6.656;2022-09-20T05:30:13;10.80;99.90
7894;DHT22;51343;51.396;6.656;2022-09-20T05:32:42;10.80;99.90
7894;DHT22;51343;51.396;6.656;2022-09-20T05:35:13;10.80;99.90
7894;DHT22;51343;51.396;6.656;2022-09-20T05:37:43;10.80;99.90
7894;DHT22;51343;51.396;6.656;2022-09-20T05:40:15;10.80;99.90
7894;DHT22;51343;51.396;6.656;2022-09-20T05:42:46;10.90;99.90
7894;DHT22;51343;51.396;6.656;2022-09-20T05:45:18;10.90;99.90
7894;DHT22;51343;51.396;6.656;2022-09-20T05:47:49;10.90;99.90
7894;DHT22;51343;51.396;6.656;2022-09-20T05:50:28;10.90;99.90
7894;DHT22;51343;51.396;6.656;2022-09-20T05:53:01;10.90;99.90
7894;DHT22;51343;51.396;6.656;2022-09-20T05:58:15;11.00;99.90
7894;DHT22;51343;51.396;6.656;2022-09-20T06:00:49;11.00;99.90
7894;DHT22;51343;51.396;6.656;2022-09-20T06:03:20;10.90;99.90
7894;DHT22;51343;51.396;6.656;2022-09-20T06:05:52;11.00;99.90
7894;DHT22;51343;51.396;6.656;2022-09-20T06:08:25;11.00;99.90
7894;DHT22;51343;51.396;6.656;2022-09-20T06:10:58;11.00;99.90
7894;DHT22;51343;51.396;6.656;2022-09-20T06:13:34;11.00;99.90
7894;DHT22;51343;51.396;6.656;2022-09-20T06:16:04;11.00;99.90
7894;DHT22;51343;51.396;6.656;2022-09-20T06:18:32;11.00;99.90
7894;DHT22;51343;51.396;6.656;2022-09-20T06:21:02;11.00;99.90
7894;DHT22;51343;51.396;6.656;2022-09-20T06:23:33;10.90;99.90
7894;DHT22;51343;51.396;6.656;2022-09-20T06:26:00;10.90;99.90
7894;DHT22;51343;51.396;6.656;2022-09-20T06:28:29;10.80;99.90
7894;DHT22;51343;51.396;6.656;2022-09-20T06:30:58;10.80;99.90
7894;DHT22;51343;51.396;6.656;2022-09-20T06:33:27;10.80;99.90
7894;DHT22;51343;51.396;6.656;2022-09-20T06:35:55;10.90;99.90
7894;DHT22;51343;51.396;6.656;2022-09-20T06:38:27;10.90;99.90
7894;DHT22;51343;51.396;6.656;2022-09-20T06:41:18;11.00;99.90
7894;DHT22;51343;51.396;6.656;2022-09-20T06:43:55;11.10;99.90
7894;DHT22;51343;51.396;6.656;2022-09-20T06:46:23;11.20;99.90
7894;DHT22;51343;51.396;6.656;2022-09-20T06:48:51;11.30;99.90
7894;DHT22;51343;51.396;6.656;2022-09-20T06:51:18;11.40;99.90
7894;DHT22;51343;51.396;6.656;2022-09-20T06:53:45;11.50;99.90
7894;DHT22;51343;51.396;6.656;2022-09-20T06:58:39;11.60;99.90
7894;DHT22;51343;51.396;6.656;2022-09-20T07:01:05;11.60;99.90
7894;DHT22;51343;51.396;6.656;2022-09-20T07:03:32;11.60;99.90
7894;DHT22;51343;51.396;6.656;2022-09-20T07:06:00;11.50;99.90
7894;DHT22;51343;51.396;6.656;2022-09-20T07:08:28;11.50;99.90
7894;DHT22;51343;51.396;6.656;2022-09-20T07:10:55;11.60;99.90
7894;DHT22;51343;51.396;6.656;2022-09-20T07:13:21;11.60;99.90
7894;DHT22;51343;51.396;6.656;2022-09-20T07:15:48;11.70;99.90
7894;DHT22;51343;51.396;6.656;2022-09-20T07:18:15;11.80;99.90
7894;DHT22;51343;51.396;6.656;2022-09-20T07:20:42;11.90;99.90
7894;DHT22;51343;51.396;6.656;2022-09-20T07:23:10;12.00;99.90
7894;DHT22;51343;51.396;6.656;2022-09-20T07:25:36;12.10;99.90
7894;DHT22;51343;51.396;6.656;2022-09-20T07:28:03;12.20;99.90
7894;DHT22;51343;51.396;6.656;2022-09-20T07:30:30;12.30;99.90
7894;DHT22;51343;51.396;6.656;2022-09-20T07:32:56;12.40;99.90
7894;DHT22;51343;51.396;6.656;2022-09-20T07:35:24;12.40;99.90
7894;DHT22;51343;51.396;6.656;2022-09-20T07:37:55;12.50;99.90
7894;DHT22;51343;51.396;6.656;2022-09-20T07:40:23;12.60;99.90
7894;DHT22;51343;51.396;6.656;2022-09-20T07:42:49;12.60;99.90
7894;DHT22;51343;51.396;6.656;2022-09-20T07:45:16;12.70;99.90
7894;DHT22;51343;51.396;6.656;2022-09-20T07:47:43;12.80;99.90
7894;DHT22;51343;51.396;6.656;2022-09-20T07:50:10;12.80;99.90
7894;DHT22;51343;51.396;6.656;2022-09-20T07:52:37;12.80;99.90
7894;DHT22;51343;51.396;6.656;2022-09-20T07:55:04;12.90;99.90
7894;DHT22;51343;51.396;6.656;2022-09-20T07:57:34;12.90;99.90
7894;DHT22;51343;51.396;6.656;2022-09-20T08:00:02;13.00;99.90
7894;DHT22;51343;51.396;6.656;2022-09-20T08:02:29;13.10;99.90
7894;DHT22;51343;51.396;6.656;2022-09-20T08:04:55;13.00;99.90
7894;DHT22;51343;51.396;6.656;2022-09-20T08:07:22;12.90;99.90
7894;DHT22;51343;51.396;6.656;2022-09-20T08:09:49;12.80;99.90
7894;DHT22;51343;51.396;6.656;2022-09-20T08:12:15;12.70;99.90
7894;DHT22;51343;51.396;6.656;2022-09-20T08:14:45;12.70;99.90
7894;DHT22;51343;51.396;6.656;2022-09-20T08:17:12;12.60;99.90
7894;DHT22;51343;51.396;6.656;2022-09-20T08:19:38;12.60;99.90
7894;DHT22;51343;51.396;6.656;2022-09-20T08:22:07;12.70;99.90
7894;DHT22;51343;51.396;6.656;2022-09-20T08:24:35;12.70;99.90
7894;DHT22;51343;51.396;6.656;2022-09-20T08:27:01;12.80;99.90
7894;DHT22;51343;51.396;6.656;2022-09-20T08:29:28;12.80;99.90
7894;DHT22;51343;51.396;6.656;2022-09-20T08:31:56;12.90;99.90
7894;DHT22;51343;51.396;6.656;2022-09-20T08:34:25;13.00;99.90
7894;DHT22;51343;51.396;6.656;2022-09-20T08:36:51;13.10;99.90
7894;DHT22;51343;51.396;6.656;2022-09-20T08:39:21;13.20;99.90
7894;DHT22;51343;51.396;6.656;2022-09-20T08:41:49;13.30;99.90
7894;DHT22;51343;51.396;6.656;2022-09-20T08:44:20;13.50;99.90
7894;DHT22;51343;51.396;6.656;2022-09-20T08:46:51;13.70;99.90
7894;DHT22;51343;51.396;6.656;2022-09-20T08:49:23;14.00;1.00
7894;DHT22;51343;51.396;6.656;2022-09-20T08:51:51;14.20;11.70
7894;DHT22;51343;51.396;6.656;2022-09-20T08:54:19;14.30;99.90
7894;DHT22;51343;51.396;6.656;2022-09-20T08:56:48;14.20;99.90
7894;DHT22;51343;51.396;6.656;2022-09-20T08:59:15;14.20;99.90
7894;DHT22;51343;51.396;6.656;2022-09-20T09:01:44;14.20;1.00
7894;DHT22;51343;51.396;6.656;2022-09-20T09:04:11;14.30;1.00
7894;DHT22;51343;51.396;6.656;2022-09-20T09:06:40;14.40;1.00
7894;DHT22;51343;51.396;6.656;2022-09-20T09:09:07;14.50;1.00
7894;DHT22;51343;51.396;6.656;2022-09-20T09:11:36;14.60;1.00
7894;DHT22;51343;51.396;6.656;2022-09-20T09:14:06;14.60;1.00
7894;DHT22;51343;51.396;6.656;2022-09-20T09:16:56;14.70;1.00
7894;DHT22;51343;51.396;6.656;2022-09-20T09:19:26;14.90;1.00
7894;DHT22;51343;51.396;6.656;2022-09-20T09:21:56;14.90;1.00
7894;DHT22;51343;51.396;6.656;2022-09-20T09:24:23;15.10;29.20
7894;DHT22;51343;51.396;6.656;2022-09-20T09:26:50;15.20;42.30
7894;DHT22;51343;51.396;6.656;2022-09-20T09:29:29;15.10;99.90
7894;DHT22;51343;51.396;6.656;2022-09-20T09:31:57;15.10;99.90
7894;DHT22;51343;51.396;6.656;2022-09-20T09:34:40;15.00;99.90
7894;DHT22;51343;51.396;6.656;2022-09-20T09:37:08;14.90;1.00
7894;DHT22;51343;51.396;6.656;2022-09-20T09:39:47;14.80;1.00
7894;DHT22;51343;51.396;6.656;2022-09-20T09:42:30;14.80;1.00
7894;DHT22;51343;51.396;6.656;2022-09-20T09:45:08;14.80;1.00
7894;DHT22;51343;51.396;6.656;2022-09-20T09:47:35;14.70;1.00
7894;DHT22;51343;51.396;6.656;2022-09-20T09:50:02;14.60;1.00
7894;DHT22;51343;51.396;6.656;2022-09-20T09:52:30;14.50;99.90
7894;DHT22;51343;51.396;6.656;2022-09-20T09:55:00;14.50;99.90
7894;DHT22;51343;51.396;6.656;2022-09-20T09:57:31;14.30;1.00
7894;DHT22;51343;51.396;6.656;2022-09-20T10:00:07;14.20;99.90
7894;DHT22;51343;51.396;6.656;2022-09-20T10:02:44;14.00;1.00
7894;DHT22;51343;51.396;6.656;2022-09-20T10:05:13;13.90;1.00
7894;DHT22;51343;51.396;6.656;2022-09-20T10:07:44;13.90;99.90
7894;DHT22;51343;51.396;6.656;2022-09-20T10:10:15;13.90;99.90
7894;DHT22;51343;51.396;6.656;2022-09-20T10:12:48;13.90;1.00
7894;DHT22;51343;51.396;6.656;2022-09-20T10:15:23;13.90;1.00
7894;DHT22;51343;51.396;6.656;2022-09-20T10:17:56;14.00;1.00
7894;DHT22;51343;51.396;6.656;2022-09-20T10:20:35;14.20;99.90
7894;DHT22;51343;51.396;6.656;2022-09-20T10:23:11;14.20;1.00
7894;DHT22;51343;51.396;6.656;2022-09-20T10:25:42;14.40;1.00
7894;DHT22;51343;51.396;6.656;2022-09-20T10:28:20;14.40;1.00
7894;DHT22;51343;51.396;6.656;2022-09-20T10:30:52;14.40;1.00
7894;DHT22;51343;51.396;6.656;2022-09-20T10:33:27;14.50;1.00
7894;DHT22;51343;51.396;6.656;2022-09-20T10:38:42;14.50;1.00
7894;DHT22;51343;51.396;6.656;2022-09-20T10:41:12;14.60;5.40
7894;DHT22;51343;51.396;6.656;2022-09-20T10:44:01;14.70;1.00
7894;DHT22;51343;51.396;6.656;2022-09-20T10:46:33;14.90;79.50
7894;DHT22;51343;51.396;6.656;2022-09-20T10:49:07;15.00;1.00
7894;DHT22;51343;51.396;6.656;2022-09-20T10:51:40;15.10;27.70
7894;DHT22;51343;51.396;6.656;2022-09-20T10:54:13;15.20;1.00
7894;DHT22;51343;51.396;6.656;2022-09-20T10:56:41;15.20;1.00
7894;DHT22;51343;51.396;6.656;2022-09-20T10:59:20;15.10;99.90
7894;DHT22;51343;51.396;6.656;2022-09-20T11:01:51;15.60;99.90
7894;DHT22;51343;51.396;6.656;2022-09-20T11:04:27;16.40;34.40
7894;DHT22;51343;51.396;6.656;2022-09-20T11:07:00;17.00;1.00
7894;DHT22;51343;51.396;6.656;2022-09-20T11:09:32;17.50;99.90
7894;DHT22;51343;51.396;6.656;2022-09-20T11:12:01;18.10;99.90
7894;DHT22;51343;51.396;6.656;2022-09-20T11:14:30;18.60;1.00
7894;DHT22;51343;51.396;6.656;2022-09-20T11:17:00;18.70;99.90
7894;DHT22;51343;51.396;6.656;2022-09-20T11:19:31;18.40;99.90
7894;DHT22;51343;51.396;6.656;2022-09-20T11:22:01;18.30;99.90
7894;DHT22;51343;51.396;6.656;2022-09-20T11:24:33;18.10;99.90
7894;DHT22;51343;51.396;6.656;2022-09-20T11:27:03;18.00;99.90
7894;DHT22;51343;51.396;6.656;2022-09-20T11:29:32;17.60;99.90
7894;DHT22;51343;51.396;6.656;2022-09-20T11:32:01;17.50;99.90
7894;DHT22;51343;51.396;6.656;2022-09-20T11:34:31;17.30;99.90
7894;DHT22;51343;51.396;6.656;2022-09-20T11:36:59;17.10;99.90
7894;DHT22;51343;51.396;6.656;2022-09-20T11:39:28;17.50;99.90
7894;DHT22;51343;51.396;6.656;2022-09-20T11:41:57;17.80;99.90
7894;DHT22;51343;51.396;6.656;2022-09-20T11:44:25;17.70;99.90
7894;DHT22;51343;51.396;6.656;2022-09-20T11:46:52;17.70;99.90
7894;DHT22;51343;51.396;6.656;2022-09-20T11:49:21;17.60;99.90
7894;DHT22;51343;51.396;6.656;2022-09-20T11:51:59;17.50;99.90
7894;DHT22;51343;51.396;6.656;2022-09-20T11:57:12;17.70;99.90
7894;DHT22;51343;51.396;6.656;2022-09-20T11:59:40;17.90;68.20
7894;DHT22;51343;51.396;6.656;2022-09-20T12:02:12;17.60;51.50
7894;DHT22;51343;51.396;6.656;2022-09-20T12:04:41;17.30;99.90
7894;DHT22;51343;51.396;6.656;2022-09-20T12:07:14;17.20;84.50
7894;DHT22;51343;51.396;6.656;2022-09-20T12:09:42;17.40;99.90
7894;DHT22;51343;51.396;6.656;2022-09-20T12:12:14;17.40;99.90
7894;DHT22;51343;51.396;6.656;2022-09-20T12:14:50;17.40;99.90
7894;DHT22;51343;51.396;6.656;2022-09-20T12:22:45;17.60;99.90
7894;DHT22;51343;51.396;6.656;2022-09-20T12:27:59;17.30;99.90
7894;DHT22;51343;51.396;6.656;2022-09-20T12:30:25;17.20;99.90
7894;DHT22;51343;51.396;6.656;2022-09-20T12:32:57;17.10;99.90
7894;DHT22;51343;51.396;6.656;2022-09-20T12:38:25;17.10;99.90
7894;DHT22;51343;51.396;6.656;2022-09-20T12:40:59;17.20;99.90
7894;DHT22;51343;51.396;6.656;2022-09-20T12:43:27;17.10;99.90
7894;DHT22;51343;51.396;6.656;2022-09-20T12:45:54;17.20;99.90
7894;DHT22;51343;51.396;6.656;2022-09-20T12:48:21;17.30;99.90
7894;DHT22;51343;51.396;6.656;2022-09-20T12:50:59;17.60;99.90
7894;DHT22;51343;51.396;6.656;2022-09-20T12:53:49;18.00;99.90
7894;DHT22;51343;51.396;6.656;2022-09-20T12:56:22;18.10;99.90
7894;DHT22;51343;51.396;6.656;2022-09-20T12:58:52;18.20;99.90
7894;DHT22;51343;51.396;6.656;2022-09-20T13:01:28;18.10;99.90
7894;DHT22;51343;51.396;6.656;2022-09-20T13:06:36;18.00;99.90
7894;DHT22;51343;51.396;6.656;2022-09-20T13:09:04;17.60;99.90
7894;DHT22;51343;51.396;6.656;2022-09-20T13:11:34;17.30;99.90
7894;DHT22;51343;51.396;6.656;2022-09-20T13:14:09;17.10;99.90
7894;DHT22;51343;51.396;6.656;2022-09-20T13:16:38;16.90;99.90
7894;DHT22;51343;51.396;6.656;2022-09-20T13:19:11;16.70;1.00
7894;DHT22;51343;51.396;6.656;2022-09-20T13:21:40;16.70;1.00
7894;DHT22;51343;51.396;6.656;2022-09-20T13:24:11;16.80;99.90
7894;DHT22;51343;51.396;6.656;2022-09-20T13:26:43;17.20;99.90
7894;DHT22;51343;51.396;6.656;2022-09-20T13:29:18;18.20;99.90
7894;DHT22;51343;51.396;6.656;2022-09-20T13:31:47;17.90;99.90
7894;DHT22;51343;51.396;6.656;2022-09-20T13:34:17;17.70;99.90
7894;DHT22;51343;51.396;6.656;2022-09-20T13:36:44;17.20;99.90
7894;DHT22;51343;51.396;6.656;2022-09-20T13:39:19;16.70;99.90
7894;DHT22;51343;51.396;6.656;2022-09-20T13:41:47;16.60;99.90
7894;DHT22;51343;51.396;6.656;2022-09-20T13:44:15;16.50;1.00
7894;DHT22;51343;51.396;6.656;2022-09-20T13:46:43;16.40;1.00
7894;DHT22;51343;51.396;6.656;2022-09-20T13:49:14;16.70;1.00
7894;DHT22;51343;51.396;6.656;2022-09-20T13:51:42;17.30;99.90
7894;DHT22;51343;51.396;6.656;2022-09-20T13:54:18;18.50;99.90
7894;DHT22;51343;51.396;6.656;2022-09-20T13:56:46;19.60;99.90
7894;DHT22;51343;51.396;6.656;2022-09-20T13:59:13;20.70;1.00
7894;DHT22;51343;51.396;6.656;2022-09-20T14:01:44;21.50;1.00
7894;DHT22;51343;51.396;6.656;2022-09-20T14:04:14;22.40;1.00
7894;DHT22;51343;51.396;6.656;2022-09-20T14:06:41;22.30;1.00
7894;DHT22;51343;51.396;6.656;2022-09-20T14:09:15;22.30;1.00
7894;DHT22;51343;51.396;6.656;2022-09-20T14:11:43;22.30;5.30
7894;DHT22;51343;51.396;6.656;2022-09-20T14:14:10;22.50;1.00
7894;DHT22;51343;51.396;6.656;2022-09-20T14:16:40;22.70;99.90
7894;DHT22;51343;51.396;6.656;2022-09-20T14:19:10;22.30;99.90
7894;DHT22;51343;51.396;6.656;2022-09-20T14:21:39;22.30;88.10
7894;DHT22;51343;51.396;6.656;2022-09-20T14:24:07;22.20;98.40
7894;DHT22;51343;51.396;6.656;2022-09-20T14:26:58;22.10;99.90
7894;DHT22;51343;51.396;6.656;2022-09-20T14:29:28;22.30;99.90
7894;DHT22;51343;51.396;6.656;2022-09-20T14:31:55;22.30;99.90
7894;DHT22;51343;51.396;6.656;2022-09-20T14:34:24;22.40;99.90
7894;DHT22;51343;51.396;6.656;2022-09-20T14:36:58;22.80;99.90
7894;DHT22;51343;51.396;6.656;2022-09-20T14:39:27;23.00;99.90
7894;DHT22;51343;51.396;6.656;2022-09-20T14:41:53;22.80;99.90
7894;DHT22;51343;51.396;6.656;2022-09-20T14:44:22;22.60;99.90
7894;DHT22;51343;51.396;6.656;2022-09-20T14:46:49;21.90;99.90
7894;DHT22;51343;51.396;6.656;2022-09-20T14:49:19;22.00;99.90
7894;DHT22;51343;51.396;6.656;2022-09-20T14:51:47;20.90;1.00
7894;DHT22;51343;51.396;6.656;2022-09-20T14:54:20;20.20;1.00
7894;DHT22;51343;51.396;6.656;2022-09-20T14:56:48;19.60;1.00
7894;DHT22;51343;51.396;6.656;2022-09-20T14:59:22;19.00;99.90
7894;DHT22;51343;51.396;6.656;2022-09-20T15:01:53;18.40;1.00
7894;DHT22;51343;51.396;6.656;2022-09-20T15:04:21;18.00;1.00
7894;DHT22;51343;51.396;6.656;2022-09-20T15:06:49;17.60;1.00
7894;DHT22;51343;51.396;6.656;2022-09-20T15:09:16;17.70;1.00
7894;DHT22;51343;51.396;6.656;2022-09-20T15:11:43;17.80;1.00
7894;DHT22;51343;51.396;6.656;2022-09-20T15:14:10;17.50;1.00
7894;DHT22;51343;51.396;6.656;2022-09-20T15:16:37;17.40;1.00
7894;DHT22;51343;51.396;6.656;2022-09-20T15:19:03;17.30;1.00
7894;DHT22;51343;51.396;6.656;2022-09-20T15:21:32;17.30;1.00
7894;DHT22;51343;51.396;6.656;2022-09-20T15:24:00;17.10;1.00
7894;DHT22;51343;51.396;6.656;2022-09-20T15:26:27;17.00;1.00
7894;DHT22;51343;51.396;6.656;2022-09-20T15:28:57;16.70;1.00
7894;DHT22;51343;51.396;6.656;2022-09-20T15:31:25;16.50;1.00
7894;DHT22;51343;51.396;6.656;2022-09-20T15:33:52;16.50;1.00
7894;DHT22;51343;51.396;6.656;2022-09-20T15:36:18;16.40;1.00
7894;DHT22;51343;51.396;6.656;2022-09-20T15:38:45;16.30;1.00
7894;DHT22;51343;51.396;6.656;2022-09-20T15:41:13;16.30;1.00
7894;DHT22;51343;51.396;6.656;2022-09-20T15:43:40;16.40;1.00
7894;DHT22;51343;51.396;6.656;2022-09-20T15:46:15;16.40;1.00
7894;DHT22;51343;51.396;6.656;2022-09-20T15:48:42;16.30;1.00
7894;DHT22;51343;51.396;6.656;2022-09-20T15:51:10;16.20;1.00
7894;DHT22;51343;51.396;6.656;2022-09-20T15:53:37;16.10;1.00
7894;DHT22;51343;51.396;6.656;2022-09-20T15:56:12;16.10;1.00
7894;DHT22;51343;51.396;6.656;2022-09-20T15:58:42;16.10;1.00
7894;DHT22;51343;51.396;6.656;2022-09-20T16:01:09;16.10;1.00
7894;DHT22;51343;51.396;6.656;2022-09-20T16:03:36;16.10;1.00
7894;DHT22;51343;51.396;6.656;2022-09-20T16:06:04;16.20;1.00
7894;DHT22;51343;51.396;6.656;2022-09-20T16:08:31;16.30;1.00
7894;DHT22;51343;51.396;6.656;2022-09-20T16:10:58;16.20;1.00
7894;DHT22;51343;51.396;6.656;2022-09-20T16:13:25;16.00;1.00
7894;DHT22;51343;51.396;6.656;2022-09-20T16:15:54;16.00;1.00
7894;DHT22;51343;51.396;6.656;2022-09-20T16:18:21;16.00;1.00
7894;DHT22;51343;51.396;6.656;2022-09-20T16:21:06;16.10;1.00
7894;DHT22;51343;51.396;6.656;2022-09-20T16:23:32;16.00;1.00
7894;DHT22;51343;51.396;6.656;2022-09-20T16:26:00;16.00;1.00
7894;DHT22;51343;51.396;6.656;2022-09-20T16:28:27;16.10;1.00
7894;DHT22;51343;51.396;6.656;2022-09-20T16:30:56;15.90;1.00
7894;DHT22;51343;51.396;6.656;2022-09-20T16:33:23;15.90;1.00
7894;DHT22;51343;51.396;6.656;2022-09-20T16:35:49;15.80;1.00
7894;DHT22;51343;51.396;6.656;2022-09-20T16:38:16;15.70;1.00
7894;DHT22;51343;51.396;6.656;2022-09-20T16:40:43;15.70;1.00
7894;DHT22;51343;51.396;6.656;2022-09-20T16:43:09;15.70;1.00
7894;DHT22;51343;51.396;6.656;2022-09-20T16:45:36;15.60;20.10
7894;DHT22;51343;51.396;6.656;2022-09-20T16:48:04;15.60;1.00
7894;DHT22;51343;51.396;6.656;2022-09-20T16:50:31;15.60;1.00
7894;DHT22;51343;51.396;6.656;2022-09-20T16:52:57;15.60;1.00
7894;DHT22;51343;51.396;6.656;2022-09-20T16:55:24;15.40;1.00
7894;DHT22;51343;51.396;6.656;2022-09-20T16:57:50;15.40;1.00
7894;DHT22;51343;51.396;6.656;2022-09-20T17:00:17;15.30;29.00
7894;DHT22;51343;51.396;6.656;2022-09-20T17:02:47;15.20;43.30
7894;DHT22;51343;51.396;6.656;2022-09-20T17:05:15;15.10;34.80
7894;DHT22;51343;51.396;6.656;2022-09-20T17:07:42;15.00;99.90
7894;DHT22;51343;51.396;6.656;2022-09-20T17:10:10;15.00;99.90